Time;durP1;ratioP1;P1;durP2;ratioP2;P2;SDS_P1;SDS_P2;PMS_P1;PMS_P2;Temp;Humidity;BMP_temperature;BMP_pressure;BME280_temperature;BME280_humidity;BME280_pressure;Samples;Min_cycle;Max_cycle;Signal;HPM_P1;HPM_P2
2022/12/30 00:01:21;;;;;;;13.18;4.55;;;;;;;5.74;100.00;100057.03;5007772;28;20586;-63
2022/12/30 00:03:47;;;;;;;14.50;4.53;;;;;;;5.46;100.00;100031.09;4982386;28;20029;-63
2022/12/30 00:06:15;;;;;;;12.98;4.72;;;;;;;5.63;100.00;100054.78;5008330;28;20053;-63
2022/12/30 00:08:45;;;;;;;14.35;4.00;;;;;;;5.61;100.00;100066.19;4999935;28;20028;-63
2022/12/30 00:11:15;;;;;;;13.13;4.40;;;;;;;5.41;100.00;100043.41;5001450;28;20029;-63
2022/12/30 00:33:08;;;;;;;8.68;3.95;;;;;;;5.12;100.00;100067.84;5005735;28;20123;-63
2022/12/30 00:35:35;;;;;;;16.30;4.35;;;;;;;5.08;100.00;100061.03;5000590;28;20950;-63
2022/12/30 00:38:00;;;;;;;19.27;4.38;;;;;;;5.01;100.00;100067.34;5006479;28;20029;-63
2022/12/30 00:40:25;;;;;;;15.07;4.55;;;;;;;4.99;100.00;100082.19;5003900;28;20064;-63
2022/12/30 00:43:09;;;;;;;17.55;3.90;;;;;;;4.93;100.00;100087.59;5007345;28;20040;-63
2022/12/30 00:45:37;;;;;;;17.80;3.92;;;;;;;4.72;100.00;100054.44;5005983;28;20033;-63
2022/12/30 00:56:15;;;;;;;16.88;4.10;;;;;;;4.62;100.00;100092.06;5010592;28;20048;-63
2022/12/30 00:58:41;;;;;;;12.43;3.80;;;;;;;4.49;100.00;100072.53;5018239;28;20060;-63
2022/12/30 01:01:06;;;;;;;16.10;4.47;;;;;;;4.49;100.00;100070.78;5019663;28;20024;-63
2022/12/30 01:03:31;;;;;;;20.65;3.90;;;;;;;4.56;100.00;100087.88;5004751;28;20968;-63
2022/12/30 01:05:57;;;;;;;13.55;4.05;;;;;;;4.52;100.00;100069.81;5005542;28;20075;-63
2022/12/30 01:08:22;;;;;;;16.27;4.53;;;;;;;4.59;100.00;100082.59;5005622;28;20935;-63
2022/12/30 01:10:48;;;;;;;11.43;3.90;;;;;;;4.58;100.00;100065.28;5021052;28;20017;-63
2022/12/30 01:13:13;;;;;;;14.07;4.32;;;;;;;4.58;100.00;100069.63;5005814;28;20905;-63
2022/12/30 01:15:39;;;;;;;15.35;4.38;;;;;;;4.60;100.00;100067.81;5007442;28;20394;-63
2022/12/30 01:18:04;;;;;;;12.23;3.88;;;;;;;4.45;100.00;100052.69;5008277;28;20883;-63
2022/12/30 01:20:30;;;;;;;17.55;4.60;;;;;;;4.67;100.00;100079.75;5006866;28;20926;-63
2022/12/30 01:22:56;;;;;;;18.95;4.43;;;;;;;4.66;100.00;100078.06;5006048;28;20037;-63
2022/12/30 01:25:21;;;;;;;25.52;4.57;;;;;;;4.60;100.00;100080.81;5006639;28;20060;-63
2022/12/30 01:27:50;;;;;;;23.17;5.18;;;;;;;4.64;100.00;100085.03;5003369;28;20035;-63
2022/12/30 01:30:16;;;;;;;20.60;5.00;;;;;;;4.51;100.00;100062.91;5004650;28;20021;-63
2022/12/30 01:32:41;;;;;;;13.85;5.03;;;;;;;4.65;100.00;100091.97;5006492;28;20180;-63
2022/12/30 01:35:07;;;;;;;13.77;4.70;;;;;;;4.69;100.00;100095.31;5006332;28;20937;-63
2022/12/30 01:37:33;;;;;;;17.63;4.57;;;;;;;4.66;100.00;100091.06;4997890;28;20942;-63
2022/12/30 01:39:58;;;;;;;14.98;4.68;;;;;;;4.57;100.00;100084.38;4997907;28;20025;-63
2022/12/30 01:42:26;;;;;;;11.93;4.32;;;;;;;4.48;100.00;100078.63;4986923;28;20111;-63
2022/12/30 01:45:10;;;;;;;13.10;3.85;;;;;;;4.38;100.00;100065.03;5001913;28;20083;-63
2022/12/30 01:48:17;;;;;;;11.48;3.75;;;;;;;4.48;100.00;100086.41;5000826;28;20034;-63
2022/12/30 01:51:00;;;;;;;13.80;4.25;;;;;;;4.42;100.00;100084.00;4947973;28;20034;-63
2022/12/30 01:53:35;;;;;;;14.13;4.53;;;;;;;4.45;100.00;100089.13;4950106;28;20096;-64
2022/12/30 01:56:04;;;;;;;11.73;4.60;;;;;;;4.47;100.00;100092.50;4970063;28;20087;-63
2022/12/30 01:58:53;;;;;;;21.67;5.00;;;;;;;4.47;100.00;100095.13;5006449;28;20029;-63
2022/12/30 02:01:19;;;;;;;14.10;4.68;;;;;;;4.47;100.00;100097.72;5005130;28;20048;-63
2022/12/30 02:03:48;;;;;;;18.58;4.63;;;;;;;4.30;100.00;100073.97;5013803;28;20025;-63
2022/12/30 02:06:18;;;;;;;19.75;5.03;;;;;;;4.49;100.00;100111.53;5020565;28;20932;-63
2022/12/30 02:08:44;;;;;;;17.65;4.82;;;;;;;4.52;100.00;100117.50;4986889;28;20163;-63
2022/12/30 02:11:09;;;;;;;12.93;4.53;;;;;;;4.60;100.00;100135.47;5004838;28;20872;-62
2022/12/30 02:13:35;;;;;;;12.82;4.20;;;;;;;4.65;100.00;100133.59;5005197;28;20078;-63
2022/12/30 02:16:06;;;;;;;11.80;4.63;;;;;;;4.70;100.00;100136.88;5007000;28;20879;-63
2022/12/30 02:18:37;;;;;;;11.68;4.15;;;;;;;4.71;100.00;100140.34;5009067;28;20064;-63
2022/12/30 02:21:11;;;;;;;17.30;3.90;;;;;;;4.67;100.00;100126.56;5028745;28;20839;-63
2022/12/30 02:24:00;;;;;;;17.13;4.38;;;;;;;4.69;100.00;100127.41;5012589;28;20852;-63
2022/12/30 02:26:35;;;;;;;14.05;4.65;;;;;;;4.66;100.00;100119.69;5010813;28;20329;-63
2022/12/30 02:29:18;;;;;;;13.70;4.25;;;;;;;4.63;100.00;100114.56;5009458;28;20040;-63
2022/12/30 02:32:05;;;;;;;20.00;4.00;;;;;;;4.56;100.00;100107.88;4997287;28;20029;-63
2022/12/30 02:35:07;;;;;;;17.58;4.13;;;;;;;4.48;100.00;100107.22;5016389;28;20028;-63
2022/12/30 02:38:11;;;;;;;12.07;4.25;;;;;;;4.44;100.00;100103.88;4988727;28;20038;-63
2022/12/30 02:46:12;;;;;;;14.20;4.43;;;;;;;4.08;100.00;100048.63;5001827;28;20040;-63
2022/12/30 02:48:39;;;;;;;15.43;4.40;;;;;;;4.45;100.00;100094.31;5009797;28;20036;-63
2022/12/30 02:53:50;;;;;;;15.70;4.20;;;;;;;4.28;100.00;100049.75;4996834;28;20044;-63
2022/12/30 02:56:15;;;;;;;15.13;4.95;;;;;;;4.38;100.00;100069.38;4992420;28;20060;-62
2022/12/30 02:58:46;;;;;;;17.50;4.72;;;;;;;4.46;100.00;100081.25;5009991;28;20021;-63
2022/12/30 03:04:40;;;;;;;15.68;5.05;;;;;;;4.50;100.00;100089.81;5006459;28;20091;-63
2022/12/30 03:07:40;;;;;;;12.32;4.75;;;;;;;4.48;100.00;100068.22;5011152;28;20039;-63
2022/12/30 03:13:07;;;;;;;21.50;5.30;;;;;;;4.52;100.00;100073.28;4998037;28;20934;-63
2022/12/30 03:15:39;;;;;;;16.95;4.70;;;;;;;4.52;100.00;100069.81;4976320;28;20473;-63
2022/12/30 03:18:05;;;;;;;11.82;4.70;;;;;;;4.47;100.00;100053.50;5010766;28;20074;-63
2022/12/30 03:20:31;;;;;;;13.95;4.32;;;;;;;4.44;100.00;100046.66;5012463;28;20020;-63
2022/12/30 03:28:27;;;;;;;16.95;4.88;;;;;;;4.47;100.00;100056.94;4990486;28;20040;-63
2022/12/30 03:31:01;;;;;;;18.00;4.85;;;;;;;4.45;100.00;100057.91;5009973;28;20088;-63
2022/12/30 03:33:27;;;;;;;;;;;;;;;4.45;100.00;100068.31;5007493;28;20080;-63
2022/12/30 03:35:56;;;;;;;18.02;3.92;;;;;;;4.34;100.00;100054.78;5009220;28;20770;-63
2022/12/30 03:38:26;;;;;;;18.42;5.75;;;;;;;4.35;100.00;100056.47;5013933;28;20037;-63
2022/12/30 03:40:53;;;;;;;20.70;4.22;;;;;;;4.44;100.00;100061.41;5019661;28;20048;-63
2022/12/30 03:43:19;;;;;;;16.15;4.47;;;;;;;4.29;100.00;100038.47;4993530;28;20844;-62
2022/12/30 03:45:45;;;;;;;13.35;4.50;;;;;;;4.41;100.00;100061.50;4993039;28;20096;-63
2022/12/30 03:48:10;;;;;;;14.23;4.65;;;;;;;4.36;100.00;100050.41;4987696;28;20877;-63
2022/12/30 03:50:36;;;;;;;12.63;4.40;;;;;;;4.27;100.00;100048.91;5009781;28;20558;-63
2022/12/30 03:53:01;;;;;;;13.77;4.45;;;;;;;4.23;100.00;100047.28;5011371;28;20040;-63
2022/12/30 03:55:26;;;;;;;18.50;4.60;;;;;;;4.20;100.00;100036.13;5010184;28;20775;-63
2022/12/30 03:57:52;;;;;;;16.52;5.13;;;;;;;4.13;100.00;100031.13;5009251;28;20063;-63
2022/12/30 04:00:18;;;;;;;12.88;4.38;;;;;;;4.05;100.00;100034.84;5006820;28;20037;-62
2022/12/30 04:02:43;;;;;;;16.40;4.93;;;;;;;4.01;100.00;100031.50;5007128;28;20028;-62
2022/12/30 04:05:09;;;;;;;10.68;4.43;;;;;;;4.02;100.00;100033.19;5008037;28;20017;-63
2022/12/30 04:07:35;;;;;;;13.82;4.72;;;;;;;4.01;100.00;100036.69;5008126;28;20044;-63
2022/12/30 04:10:02;;;;;;;20.67;5.15;;;;;;;4.01;100.00;100041.03;5007139;28;20041;-63
2022/12/30 04:12:27;;;;;;;21.48;5.05;;;;;;;3.96;100.00;100037.72;5009194;28;20025;-62
2022/12/30 04:14:52;;;;;;;16.92;4.50;;;;;;;4.02;100.00;100042.75;5009979;28;20040;-63
2022/12/30 04:17:18;;;;;;;17.13;5.05;;;;;;;4.01;100.00;100041.91;5008328;28;20878;-63
2022/12/30 04:19:44;;;;;;;18.17;5.10;;;;;;;4.04;100.00;100047.00;5007813;28;20033;-62
2022/12/30 04:22:09;;;;;;;9.10;4.03;;;;;;;3.96;100.00;100038.56;5005113;28;20847;-63
2022/12/30 04:24:34;;;;;;;13.80;4.88;;;;;;;4.04;100.00;100039.19;5005492;28;20023;-63
2022/12/30 04:27:00;;;;;;;22.33;5.32;;;;;;;4.12;100.00;100055.41;5005659;28;20135;-63
2022/12/30 04:29:25;;;;;;;24.45;5.93;;;;;;;4.13;100.00;100041.53;5007402;28;20852;-63
2022/12/30 04:31:50;;;;;;;11.23;4.40;;;;;;;4.15;100.00;100046.69;5005796;28;20024;-63
2022/12/30 04:34:16;;;;;;;25.73;6.00;;;;;;;4.13;100.00;100046.72;5006371;28;20908;-63
2022/12/30 04:36:42;;;;;;;21.75;6.03;;;;;;;4.10;100.00;100045.97;5006925;28;20032;-63
2022/12/30 04:39:07;;;;;;;18.75;5.55;;;;;;;4.06;100.00;100034.78;4997187;28;20784;-63
2022/12/30 04:41:33;;;;;;;15.70;5.55;;;;;;;4.08;100.00;100038.22;5006810;28;20158;-62
2022/12/30 04:44:01;;;;;;;21.55;6.85;;;;;;;4.08;100.00;100027.81;5005202;28;20546;-63
2022/12/30 04:46:27;;;;;;;11.68;4.45;;;;;;;4.03;100.00;100024.50;5005894;28;20033;-63
2022/12/30 04:48:53;;;;;;;15.70;4.50;;;;;;;3.87;100.00;100010.25;5006881;28;20029;-63
2022/12/30 04:51:18;;;;;;;16.13;5.15;;;;;;;4.03;100.00;100024.50;5007046;28;20021;-63
2022/12/30 04:53:43;;;;;;;13.75;4.78;;;;;;;3.91;100.00;100016.22;5008568;28;20430;-63
2022/12/30 04:56:09;;;;;;;14.32;5.00;;;;;;;3.99;100.00;100035.00;5007580;28;20131;-63
2022/12/30 04:58:34;;;;;;;13.25;5.13;;;;;;;3.91;100.00;100035.25;5002739;28;20216;-63
2022/12/30 05:01:00;;;;;;;14.82;4.82;;;;;;;3.95;100.00;100030.81;5008892;28;20708;-63
2022/12/30 05:03:25;;;;;;;18.15;4.95;;;;;;;4.01;100.00;100046.25;5009265;28;20037;-62
2022/12/30 05:05:51;;;;;;;9.77;4.47;;;;;;;4.03;100.00;100044.44;5009798;28;20056;-63
2022/12/30 05:08:16;;;;;;;13.05;4.82;;;;;;;4.09;100.00;100046.84;5010559;28;20187;-62
2022/12/30 05:10:42;;;;;;;14.02;4.88;;;;;;;4.01;100.00;100039.28;5009250;28;20025;-63
2022/12/30 05:13:07;;;;;;;11.13;5.35;;;;;;;3.84;100.00;100010.34;5006269;28;20021;-63
2022/12/30 05:15:32;;;;;;;17.92;5.10;;;;;;;4.09;100.00;100045.09;4988542;28;20029;-63
2022/12/30 05:17:58;;;;;;;13.55;4.07;;;;;;;4.08;100.00;100033.03;5006046;28;20866;-63
2022/12/30 05:20:24;;;;;;;10.27;3.97;;;;;;;4.17;100.00;100039.69;5008148;28;20133;-63
2022/12/30 05:22:49;;;;;;;14.75;5.95;;;;;;;4.22;100.00;100029.16;5009112;28;20880;-63
2022/12/30 05:27:59;;;;;;;15.88;5.07;;;;;;;4.21;100.00;100004.03;5006034;28;20938;-62
2022/12/30 05:30:24;;;;;;;9.80;4.05;;;;;;;4.40;100.00;100032.03;5008281;28;20037;-62
2022/12/30 05:32:50;;;;;;;16.48;4.43;;;;;;;4.30;100.00;100011.56;4988178;28;20883;-62
2022/12/30 05:35:15;;;;;;;13.50;4.43;;;;;;;4.29;100.00;99999.47;5005859;28;20375;-62
2022/12/30 05:37:41;;;;;;;10.52;5.22;;;;;;;4.47;100.00;100022.28;4995023;28;20057;-63
2022/12/30 05:40:07;;;;;;;13.30;4.55;;;;;;;4.53;100.00;100028.13;4987966;28;20029;-62
2022/12/30 05:42:33;;;;;;;9.93;4.80;;;;;;;4.46;100.00;100002.41;4995086;28;20115;-63
2022/12/30 05:44:58;;;;;;;9.10;4.65;;;;;;;4.53;100.00;100020.34;5005326;28;20041;-62
2022/12/30 05:47:24;;;;;;;18.17;4.00;;;;;;;4.50;100.00;100016.97;5008921;28;20052;-62
2022/12/30 05:49:49;;;;;;;14.05;3.55;;;;;;;4.06;100.00;99935.16;5007328;28;20048;-63
2022/12/30 05:52:15;;;;;;;13.32;4.63;;;;;;;4.56;100.00;100004.63;5008290;28;20551;-63
2022/12/30 05:54:41;;;;;;;17.60;4.68;;;;;;;4.65;100.00;100003.50;5009108;28;20458;-63
2022/12/30 05:57:07;;;;;;;17.38;4.32;;;;;;;4.65;100.00;100003.50;5006840;28;20402;-63
2022/12/30 05:59:32;;;;;;;14.25;4.70;;;;;;;4.71;100.00;99997.22;5006725;28;20037;-63
2022/12/30 06:01:58;;;;;;;18.08;4.90;;;;;;;4.73;100.00;99998.88;5007130;28;20870;-62
2022/12/30 06:04:23;;;;;;;18.83;4.72;;;;;;;4.70;100.00;99996.38;5010445;28;20039;-63
2022/12/30 06:06:49;;;;;;;11.55;3.67;;;;;;;4.61;100.00;99994.09;5008367;28;20026;-63
2022/12/30 06:09:14;;;;;;;15.10;3.78;;;;;;;4.65;100.00;100000.91;5006744;28;20036;-63
2022/12/30 06:11:39;;;;;;;14.68;4.13;;;;;;;4.67;100.00;99996.47;5007820;28;20906;-63
2022/12/30 06:14:05;;;;;;;23.73;4.35;;;;;;;4.65;100.00;99987.88;5000409;28;20135;-63
2022/12/30 06:16:30;;;;;;;17.70;4.45;;;;;;;4.66;100.00;99989.59;5014750;28;20462;-63
2022/12/30 06:18:56;;;;;;;10.02;3.25;;;;;;;4.71;100.00;99992.88;5012088;28;20896;-63
2022/12/30 06:21:21;;;;;;;11.13;3.97;;;;;;;4.77;100.00;99982.25;5012208;28;20906;-63
2022/12/30 06:23:47;;;;;;;12.65;3.97;;;;;;;4.75;100.00;99981.47;5008577;28;20033;-63
2022/12/30 06:26:13;;;;;;;10.52;3.88;;;;;;;4.67;100.00;99954.84;5011439;28;20025;-63
2022/12/30 06:28:38;;;;;;;13.60;3.78;;;;;;;4.81;100.00;99983.00;5010978;28;20032;-63
2022/12/30 06:31:04;;;;;;;13.65;3.92;;;;;;;4.87;100.00;99978.44;5008036;28;20056;-63
2022/12/30 06:33:29;;;;;;;14.48;3.38;;;;;;;4.81;100.00;99963.03;5006367;28;20083;-63
2022/12/30 06:35:54;;;;;;;9.93;3.63;;;;;;;4.92;100.00;99981.75;5007248;28;20016;-63
2022/12/30 06:38:20;;;;;;;12.57;3.47;;;;;;;5.02;100.00;99977.94;5012706;28;20485;-63
2022/12/30 06:40:45;;;;;;;8.02;2.95;;;;;;;5.11;100.00;99981.97;5012032;28;20091;-64
2022/12/30 06:43:12;;;;;;;10.13;2.40;;;;;;;5.10;100.00;99969.88;5007181;28;20903;-63
2022/12/30 06:45:37;;;;;;;11.75;3.08;;;;;;;4.94;100.00;99927.88;5008833;28;20033;-63
2022/12/30 06:48:03;;;;;;;7.78;3.28;;;;;;;5.07;100.00;99939.56;5017284;28;20594;-63
2022/12/30 06:50:28;;;;;;;6.45;2.53;;;;;;;5.23;100.00;99950.31;5020848;28;20139;-62
2022/12/30 06:52:54;;;;;;;6.78;2.50;;;;;;;5.25;100.00;99953.69;5015258;28;20834;-63
2022/12/30 06:55:21;;;;;;;12.63;3.72;;;;;;;5.27;100.00;99945.84;5010068;28;20064;-63
2022/12/30 06:57:47;;;;;;;7.75;2.90;;;;;;;5.32;100.00;99943.91;5008594;28;20056;-63
2022/12/30 07:00:14;;;;;;;8.95;3.15;;;;;;;5.33;100.00;99924.78;5006110;28;20033;-63
2022/12/30 07:02:39;;;;;;;7.07;2.42;;;;;;;5.41;100.00;99928.78;5009528;28;20119;-63
2022/12/30 07:05:06;;;;;;;12.13;2.92;;;;;;;5.19;100.00;99880.16;5012438;28;20809;-63
2022/12/30 07:07:31;;;;;;;6.75;2.78;;;;;;;5.43;100.00;99921.78;5014541;28;20128;-62
2022/12/30 07:09:56;;;;;;;8.40;2.78;;;;;;;5.41;100.00;99918.38;5014500;28;20040;-62
2022/12/30 07:12:22;;;;;;;10.00;2.95;;;;;;;5.43;100.00;99921.78;4998618;28;20525;-62
2022/12/30 07:14:47;;;;;;;6.32;2.53;;;;;;;5.33;100.00;99910.00;5015987;28;20021;-62
2022/12/30 07:17:13;;;;;;;11.13;3.22;;;;;;;5.40;100.00;99910.63;5011133;28;20048;-63
2022/12/30 07:19:38;;;;;;;4.97;2.40;;;;;;;5.40;100.00;99902.81;5004828;28;20869;-62
2022/12/30 07:22:03;;;;;;;8.07;2.88;;;;;;;5.43;100.00;99910.50;5018281;28;20017;-63
2022/12/30 07:24:29;;;;;;;8.25;2.17;;;;;;;5.42;100.00;99898.38;5017286;28;20072;-63
2022/12/30 07:26:54;;;;;;;6.85;2.33;;;;;;;5.40;100.00;99900.19;5002815;28;20136;-62
2022/12/30 07:29:20;;;;;;;9.93;2.58;;;;;;;5.44;100.00;99891.38;5002276;28;20039;-62
2022/12/30 07:31:46;;;;;;;6.63;2.22;;;;;;;5.45;100.00;99895.66;5009524;28;20028;-62
2022/12/30 07:34:11;;;;;;;9.95;2.25;;;;;;;5.36;100.00;99869.97;5011072;28;20028;-62
2022/12/30 07:36:37;;;;;;;9.02;2.13;;;;;;;5.52;100.00;99884.94;4999603;28;20021;-62
2022/12/30 07:39:02;;;;;;;6.32;2.63;;;;;;;5.60;100.00;99887.28;5008437;28;20025;-62
2022/12/30 07:41:28;;;;;;;8.27;3.30;;;;;;;5.63;100.00;99887.16;5020058;28;20109;-63
2022/12/30 07:43:53;;;;;;;5.93;2.30;;;;;;;5.67;100.00;99878.31;5015781;28;20064;-62
2022/12/30 07:46:19;;;;;;;6.18;2.03;;;;;;;5.72;100.00;99881.56;5009245;28;20094;-62
2022/12/30 07:48:45;;;;;;;7.82;2.25;;;;;;;5.63;100.00;99853.28;4989829;28;20032;-62
2022/12/30 07:51:12;;;;;;;13.60;2.65;;;;;;;5.75;100.00;99871.03;5007281;28;20025;-62
2022/12/30 07:53:38;;;;;;;9.80;2.35;;;;;;;5.66;100.00;99843.59;5005687;28;20017;-62
2022/12/30 07:56:09;;;;;;;8.73;2.15;;;;;;;5.82;100.00;99856.84;5006127;28;20787;-62
2022/12/30 07:58:35;;;;;;;7.60;2.03;;;;;;;5.81;100.00;99823.91;5006684;28;20042;-63
2022/12/30 08:01:07;;;;;;;7.80;2.03;;;;;;;5.85;100.00;99833.25;5005064;28;20028;-63
2022/12/30 08:03:33;;;;;;;8.82;2.13;;;;;;;5.90;100.00;99827.91;4987528;28;20029;-62
2022/12/30 08:06:11;;;;;;;5.80;2.30;;;;;;;5.83;100.00;99809.03;5006314;28;20071;-63
2022/12/30 08:08:36;;;;;;;4.70;2.08;;;;;;;5.85;100.00;99815.00;5004804;28;20029;-63
2022/12/30 08:11:03;;;;;;;7.90;1.90;;;;;;;5.84;100.00;99808.13;4997646;28;20036;-63
2022/12/30 08:13:34;;;;;;;4.03;1.85;;;;;;;5.57;100.00;99759.72;5008881;28;20040;-63
2022/12/30 08:16:21;;;;;;;9.27;1.98;;;;;;;5.93;100.00;99813.00;5008954;28;20025;-62
2022/12/30 08:18:47;;;;;;;8.20;2.03;;;;;;;5.78;100.00;99776.25;5008783;28;20029;-67
2022/12/30 08:21:14;;;;;;;7.28;2.40;;;;;;;6.02;100.00;99793.50;5009892;28;20031;-62
2022/12/30 08:23:42;;;;;;;8.75;2.10;;;;;;;5.99;100.00;99786.66;4995475;28;20032;-61
2022/12/30 08:26:16;;;;;;;8.60;2.20;;;;;;;6.06;100.00;99788.09;5014175;28;20040;-61
2022/12/30 08:28:42;;;;;;;6.80;2.30;;;;;;;6.05;100.00;99783.78;5029252;28;20294;-63
2022/12/30 08:31:16;;;;;;;6.68;1.50;;;;;;;6.07;100.00;99778.53;5024905;28;20029;-62
2022/12/30 08:33:43;;;;;;;5.38;2.15;;;;;;;6.14;100.00;99782.56;5029375;28;20063;-62
2022/12/30 08:36:11;;;;;;;8.15;2.15;;;;;;;5.82;100.00;99718.69;5023900;28;20194;-62
2022/12/30 08:38:39;;;;;;;8.75;1.80;;;;;;;6.20;100.00;99774.50;5018998;28;20037;-62
2022/12/30 08:41:09;;;;;;;6.05;1.80;;;;;;;6.24;100.00;99770.00;5025897;28;20033;-62
2022/12/30 08:43:34;;;;;;;5.93;2.40;;;;;;;6.20;100.00;99764.06;5019545;28;20033;-62
2022/12/30 08:46:00;;;;;;;9.13;2.75;;;;;;;5.89;100.00;99707.13;5028700;28;20025;-63
2022/12/30 08:48:25;;;;;;;6.45;2.15;;;;;;;6.29;100.00;99774.09;5025588;28;20032;-62
2022/12/30 08:50:53;;;;;;;9.75;1.65;;;;;;;6.19;100.00;99741.47;5026998;28;20578;-63
2022/12/30 08:53:19;;;;;;;3.08;1.23;;;;;;;6.38;100.00;99754.59;5031170;28;20033;-63
2022/12/30 08:55:44;;;;;;;6.28;2.03;;;;;;;6.23;100.00;99726.56;5028944;28;20262;-62
2022/12/30 08:58:10;;;;;;;5.60;1.80;;;;;;;6.39;100.00;99735.41;5035985;28;20028;-62
2022/12/30 09:00:37;;;;;;;5.00;1.35;;;;;;;6.52;100.00;99723.53;5037461;28;20534;-62
2022/12/30 09:03:03;;;;;;;6.13;2.28;;;;;;;6.56;100.00;99735.50;5035675;28;20059;-62
2022/12/30 09:05:28;;;;;;;4.88;1.65;;;;;;;6.61;100.00;99728.34;5036734;28;20395;-63
2022/12/30 09:07:54;;;;;;;8.27;2.22;;;;;;;6.52;100.00;99707.88;5040264;28;20029;-62
2022/12/30 09:10:20;;;;;;;5.15;1.98;;;;;;;6.66;100.00;99723.72;5038534;28;21098;-62
2022/12/30 09:12:45;;;;;;;5.25;1.80;;;;;;;6.68;100.00;99714.94;5037191;28;20748;-62
2022/12/30 09:15:11;;;;;;;5.90;2.20;;;;;;;6.47;100.00;99660.25;5024024;28;20106;-62
2022/12/30 09:17:36;;;;;;;7.43;1.63;;;;;;;6.83;100.00;99702.94;5041424;28;20032;-62
2022/12/30 09:20:02;;;;;;;6.53;1.60;;;;;;;6.99;100.00;99709.16;5038907;28;20077;-62
2022/12/30 09:22:27;;;;;;;7.00;1.60;;;;;;;7.01;100.00;99702.09;5036667;28;20131;-63
2022/12/30 09:24:53;;;;;;;3.28;1.58;;;;;;;7.09;100.00;99697.38;5040626;28;20025;-63
2022/12/30 09:27:18;;;;;;;7.28;2.30;;;;;;;7.17;100.00;99708.28;5029506;28;20443;-62
2022/12/30 09:29:43;;;;;;;5.45;1.85;;;;;;;7.32;100.00;99700.63;5038038;28;20060;-62
2022/12/30 09:32:09;;;;;;;7.78;1.88;;;;;;;7.18;100.00;99652.50;5039783;28;20028;-62
2022/12/30 09:34:34;;;;;;;6.53;1.85;;;;;;;7.11;100.00;99624.97;5028633;28;20467;-62
2022/12/30 09:37:00;;;;;;;5.25;2.15;;;;;;;7.53;100.00;99681.31;5041471;28;20633;-63
2022/12/30 09:39:31;;;;;;;15.35;2.25;;;;;;;7.68;100.00;99691.84;5040275;28;20040;-62
2022/12/30 09:45:18;;;;;;;7.88;2.05;;;;;;;7.94;100.00;99695.75;5032030;28;20079;-62
2022/12/30 09:47:48;;;;;;;6.05;1.83;;;;;;;8.08;100.00;99693.28;5021853;28;20052;-62
2022/12/30 09:50:38;;;;;;;5.63;1.42;;;;;;;8.18;100.00;99689.25;5019035;28;20040;-62
2022/12/30 09:53:16;;;;;;;5.43;1.77;;;;;;;8.23;100.00;99668.94;5031862;28;20024;-62
2022/12/30 09:55:54;;;;;;;7.85;2.00;;;;;;;8.28;100.00;99680.97;5044290;28;20428;-62
2022/12/30 09:58:24;;;;;;;4.45;1.33;;;;;;;8.36;100.00;99673.56;5026443;28;20483;-62
2022/12/30 10:00:51;;;;;;;7.00;1.75;;;;;;;8.38;100.00;99679.59;5051436;28;20025;-62
2022/12/30 10:03:27;;;;;;;10.77;2.22;;;;;;;8.36;100.00;99653.47;5048077;28;20040;-62
2022/12/30 10:06:24;;;;;;;5.25;1.95;;;;;;;8.46;100.00;99659.06;5042466;28;20036;-63
2022/12/30 10:09:27;;;;;;;10.50;2.50;;;;;;;8.44;100.00;99639.97;5046293;28;20402;-62
2022/12/30 10:11:59;;;;;;;9.18;2.13;;;;;;;8.43;100.00;99646.13;5047401;28;20033;-62
2022/12/30 10:14:57;;;;;;;9.38;2.38;;;;;;;8.44;100.00;99632.13;5048920;28;20037;-62
2022/12/30 10:17:44;;;;;;;8.00;2.33;;;;;;;8.47;100.00;99637.19;5047808;28;20033;-62
2022/12/30 10:20:41;;;;;;;8.48;2.20;;;;;;;8.48;100.00;99628.44;5047654;28;20040;-62
2022/12/30 10:23:21;;;;;;;8.73;1.73;;;;;;;8.48;100.00;99625.81;5045251;28;20041;-63
2022/12/30 10:26:00;;;;;;;6.43;2.13;;;;;;;8.49;100.00;99617.00;5048434;28;20487;-61
2022/12/30 10:28:35;;;;;;;5.18;1.83;;;;;;;8.07;100.00;99545.09;5046427;28;20509;-63
2022/12/30 10:31:00;;;;;;;6.25;2.08;;;;;;;8.31;100.00;99574.38;5064447;28;20064;-62
2022/12/30 10:33:26;;;;;;;5.00;2.10;;;;;;;8.42;100.00;99581.63;5048761;28;20033;-62
2022/12/30 10:35:59;;;;;;;10.18;2.33;;;;;;;8.44;100.00;99574.53;5047793;28;20816;-62
2022/12/30 10:38:30;;;;;;;10.20;1.83;;;;;;;8.45;100.00;99571.00;5021517;28;20083;-62
2022/12/30 10:40:58;;;;;;;9.38;2.53;;;;;;;8.45;100.00;99577.06;5033483;28;20848;-63
2022/12/30 10:43:29;;;;;;;4.53;1.95;;;;;;;8.43;100.00;99565.00;5051634;28;20083;-63
2022/12/30 10:46:24;;;;;;;6.20;2.10;;;;;;;8.44;100.00;99557.06;5046889;28;20033;-62
2022/12/30 10:49:23;;;;;;;8.98;2.58;;;;;;;8.44;100.00;99538.75;5037630;28;20048;-62
2022/12/30 10:51:49;;;;;;;6.93;2.42;;;;;;;8.39;100.00;99529.44;5044669;28;20025;-62
2022/12/30 10:54:15;;;;;;;7.03;2.58;;;;;;;8.41;100.00;99517.13;5042846;28;20024;-63
2022/12/30 10:56:42;;;;;;;6.30;2.30;;;;;;;8.41;100.00;99514.50;5046605;28;20036;-63
2022/12/30 10:59:13;;;;;;;9.60;2.58;;;;;;;8.43;100.00;99499.53;5040627;28;20086;-62
2022/12/30 11:01:41;;;;;;;11.00;2.65;;;;;;;8.47;100.00;99501.91;5052699;28;20025;-63
2022/12/30 11:04:06;;;;;;;9.13;2.40;;;;;;;8.47;100.00;99490.59;5052195;28;20032;-63
2022/12/30 11:06:33;;;;;;;7.47;2.08;;;;;;;8.52;100.00;99484.16;5050293;28;20037;-62
2022/12/30 11:09:13;;;;;;;14.02;2.40;;;;;;;8.56;100.00;99471.75;5045114;28;20055;-63
2022/12/30 11:14:44;;;;;;;8.45;1.85;;;;;;;8.57;100.00;99455.13;5050672;28;20036;-63
2022/12/30 11:17:16;;;;;;;6.20;1.83;;;;;;;8.62;100.00;99453.91;5048960;28;20028;-62
2022/12/30 11:19:43;;;;;;;12.30;2.15;;;;;;;8.63;100.00;99425.94;5044375;28;20069;-62
2022/12/30 11:22:09;;;;;;;5.40;1.65;;;;;;;8.68;100.00;99447.50;5024424;28;20092;-62
2022/12/30 11:24:35;;;;;;;6.30;2.25;;;;;;;8.70;100.00;99429.91;5029483;28;20033;-62
2022/12/30 11:27:01;;;;;;;9.73;2.13;;;;;;;8.70;100.00;99414.19;5048309;28;20052;-62
2022/12/30 11:29:31;;;;;;;7.78;2.00;;;;;;;8.63;100.00;99392.75;5064660;28;20136;-66
2022/12/30 11:31:57;;;;;;;6.18;2.17;;;;;;;8.78;100.00;99411.97;5031631;28;20126;-63
2022/12/30 11:34:22;;;;;;;6.68;1.98;;;;;;;8.78;100.00;99395.41;5049817;28;20064;-63
2022/12/30 11:36:47;;;;;;;8.55;2.67;;;;;;;8.81;100.00;99383.00;5042970;28;20068;-62
2022/12/30 11:39:22;;;;;;;10.52;2.05;;;;;;;8.85;100.00;99383.66;5033331;28;20115;-63
2022/12/30 11:41:51;;;;;;;6.30;1.40;;;;;;;8.83;100.00;99372.41;5040192;28;20041;-62
2022/12/30 11:44:23;;;;;;;5.20;1.40;;;;;;;8.83;100.00;99357.53;5051343;28;20424;-63
2022/12/30 11:46:51;;;;;;;8.20;1.90;;;;;;;8.92;100.00;99354.34;5049309;28;20032;-63
2022/12/30 11:49:28;;;;;;;8.82;1.77;;;;;;;8.99;100.00;99339.94;5047377;28;20036;-63
2022/12/30 11:51:59;;;;;;;9.93;1.55;;;;;;;8.94;100.00;99312.34;5048199;28;20076;-63
2022/12/30 11:54:26;;;;;;;4.93;1.48;;;;;;;9.01;100.00;99322.38;5050322;28;20044;-63
2022/12/30 11:57:05;;;;;;;3.85;1.40;;;;;;;9.04;100.00;99319.56;5017532;28;20067;-63
2022/12/30 11:59:43;;;;;;;5.63;1.83;;;;;;;9.04;100.00;99316.94;5047541;28;20391;-63
2022/12/30 12:02:25;;;;;;;4.30;1.55;;;;;;;9.00;100.00;99296.25;5045871;28;20028;-63
2022/12/30 12:04:51;;;;;;;4.00;1.33;;;;;;;9.04;100.00;99297.75;5058486;28;20040;-63
2022/12/30 12:07:16;;;;;;;6.75;2.00;;;;;;;9.06;100.00;99294.09;5046125;28;20827;-62
2022/12/30 12:10:04;;;;;;;4.15;1.58;;;;;;;9.10;100.00;99277.25;5043436;28;20791;-62
2022/12/30 12:12:39;;;;;;;4.82;1.00;;;;;;;9.14;100.00;99273.53;5041862;28;20032;-63
2022/12/30 12:15:12;;;;;;;2.90;1.25;;;;;;;9.02;100.00;99248.06;5023304;28;20100;-63
2022/12/30 12:17:50;;;;;;;6.15;1.40;;;;;;;9.21;100.00;99253.00;5042120;28;20175;-63
2022/12/30 12:20:32;;;;;;;3.47;1.40;;;;;;;9.27;100.00;99254.38;5040005;28;20032;-63
2022/12/30 12:23:07;;;;;;;5.28;1.17;;;;;;;9.15;100.00;99243.75;5040766;28;20040;-63
2022/12/30 12:25:37;;;;;;;;;;;;;;;9.20;100.00;99241.69;5041141;28;20048;-62
2022/12/30 12:28:03;;;;;;;3.40;1.20;;;;;;;9.11;100.00;99236.19;5040648;28;19950;-62
2022/12/30 12:30:51;;;;;;;6.47;1.15;;;;;;;8.97;100.00;99229.19;5029737;28;20037;-62
2022/12/30 12:33:29;;;;;;;5.35;1.35;;;;;;;8.81;100.00;99212.75;5044677;28;20025;-63